Old Orchard Beach, Maine
Current Conditions -  °F | °C
As of 6:51 PM on Wednesday 28 Jan 2015 (Local Time) from KPWM Reporting Station
Clear Clear  
Wind Chill: 13°   Ceiling: Unl
Heat Index: 22°   Visibility: 10mi
Dew Point:   Wind: 8mph
Humidity: 53%   Direction: 330°NNW
Pressure: 30.1"   Gusts: NA
Location:  43.52°N, 70.38°W
Report Text: KPWM 282351Z 33007KT 10SM CLR M06/M14 A3010 RMK AO2 SLP192 T10561139 11033 21056 53035
Loading
Personal Weather Stations






























Interactive Weather Map New forecast layout! Learn more

10-Day Weather Forecast

Advertisements
Track Severe Weather on mobile